Site contains unofficial IBTrACS data. Visit the IBTrACS Website to access archived data.

1863 NOT_NAMED (1863121S07089)


IBTrACS version v04r00. Visit IBTrACS website for data access.
Please direct all questions to the IBTrACS Q and A forum

Storm track - Intensity - Wind Radii - Intensity Data - Source Data - All data

Summary Information

Storm ID 1863121S07089
Start Apr 30 18Z
End May 8 06Z
ATCF IDs
Track status Best track data.

Storm track plot

Map of storm track

Intensity plots

No Intensity information for this storm


Radial wind information

No radial wind information for this storm


Position and Intensity Table

BASIN ISO_TIME_________ NATURE LAT LON
degrees north degrees east
SI 1863-04-30 18:00:00 NR -7.30 88.80
SI 21:00:00 NR -7.36 88.51
SI 1863-05-01 00:00:00 NR -7.42 88.22
SI 03:00:00 NR -7.46 87.95
SI 06:00:00 NR -7.50 87.70
SI 09:00:00 NR -7.52 87.47
SI 12:00:00 NR -7.54 87.27
SI 15:00:00 NR -7.56 87.08
SI 18:00:00 NR -7.60 86.90
SI 21:00:00 NR -7.66 86.72
SI 1863-05-02 00:00:00 NR -7.74 86.54
SI 03:00:00 NR -7.82 86.37
SI 06:00:00 NR -7.90 86.20
SI 09:00:00 NR -7.96 86.02
SI 12:00:00 NR -8.01 85.85
SI 15:00:00 NR -8.05 85.67
SI 18:00:00 NR -8.10 85.50
SI 21:00:00 NR -8.12 85.43
SI 1863-05-03 00:00:00 NR -8.14 85.34
SI 03:00:00 NR -8.19 85.15
SI 06:00:00 NR -8.30 84.80
SI 09:00:00 NR -8.47 84.18
SI 12:00:00 NR -8.70 83.38
SI 15:00:00 NR -8.98 82.49
SI 18:00:00 NR -9.30 81.60
SI 21:00:00 NR -9.70 80.72
SI 1863-05-04 00:00:00 NR -10.14 79.86
SI 03:00:00 NR -10.56 79.09
SI 06:00:00 NR -10.90 78.50
SI 09:00:00 NR -11.10 78.16
SI 12:00:00 NR -11.23 77.99
SI 15:00:00 NR -11.32 77.93
SI 18:00:00 NR -11.40 77.90
SI 21:00:00 NR -11.53 77.79
SI 1863-05-05 00:00:00 NR -11.66 77.70
SI 03:00:00 NR -11.79 77.64
SI 06:00:00 NR -11.90 77.60
SI 09:00:00 NR -11.99 77.57
SI 12:00:00 NR -12.06 77.56
SI 15:00:00 NR -12.13 77.57
SI 18:00:00 NR -12.20 77.60
SI 21:00:00 NR -12.28 77.64
SI 1863-05-06 00:00:00 NR -12.35 77.68
SI 03:00:00 NR -12.43 77.74
SI 06:00:00 NR -12.50 77.80
SI 09:00:00 NR -12.58 77.85
SI 12:00:00 NR -12.66 77.90
SI 15:00:00 NR -12.73 77.95
SI 18:00:00 NR -12.80 78.00
SI 21:00:00 NR -12.82 78.01
SI 1863-05-07 00:00:00 NR -12.83 78.03
SI 03:00:00 NR -12.88 78.09
SI 06:00:00 NR -13.00 78.20
SI 09:00:00 NR -13.25 78.41
SI 12:00:00 NR -13.56 78.67
SI 15:00:00 NR -13.90 78.98
SI 18:00:00 NR -14.20 79.30
SI 21:00:00 NR -14.44 79.61
SI 1863-05-08 00:00:00 NR -14.63 79.91
SI 03:00:00 NR -14.77 80.21
SI 06:00:00 NR -14.90 80.50

Source Information

Agency Information
USA
TOKYO
CMA
HKO
NEWDELHI
REUNION
BOM
NADI
WELLINGTON
DS824
TD9636 cons_worldwide_trop_cyclone_18710101-19891231-005:Line=705
TD9635
NEUMANN
MLC

All available IBTrACS Data

SEASON BASIN SUBBASIN ISO_TIME_________ NATURE LAT LON DIST2LAND LANDFALL IFLAG USA SSHS TD9636 LAT TD9636 LON TD9636 STAGE STORM SPEED STORM DIR
Year degrees north degrees east km km 1 degrees north degrees east kts degrees
1863 SI MM 1863-04-30 18:00:00 NR -7.30 88.80 1284 1284 __________O___ -1 -7.30 88.80 7 6 258
1863 SI MM 21:00:00 NR -7.36 88.51 1318 1318 __________P___ -1 -7.36 88.51 7 6 259
1863 SI MM 1863-05-01 00:00:00 NR -7.42 88.22 1346 1346 __________P___ -1 -7.42 88.22 7 6 259
1863 SI MM 03:00:00 NR -7.46 87.95 1371 1371 __________P___ -1 -7.46 87.95 7 5 261
1863 SI MM 06:00:00 NR -7.50 87.70 1400 1400 __________O___ -1 -7.50 87.70 7 5 263
1863 SI MM 09:00:00 NR -7.52 87.47 1419 1419 __________P___ -1 -7.52 87.47 7 4 264
1863 SI MM 12:00:00 NR -7.54 87.27 1438 1438 __________P___ -1 -7.54 87.27 7 4 264
1863 SI MM 15:00:00 NR -7.56 87.08 1463 1463 __________P___ -1 -7.56 87.08 7 4 261
1863 SI MM 18:00:00 NR -7.60 86.90 1482 1482 __________O___ -1 -7.60 86.90 7 4 254
1863 SI MM 21:00:00 NR -7.66 86.72 1507 1507 __________P___ -1 -7.66 86.72 7 4 248
1863 SI MM 1863-05-02 00:00:00 NR -7.74 86.54 1526 1526 __________P___ -1 -7.74 86.54 7 4 245
1863 SI MM 03:00:00 NR -7.82 86.37 1541 1541 __________P___ -1 -7.82 86.37 7 4 245
1863 SI MM 06:00:00 NR -7.90 86.20 1566 1566 __________O___ -1 -7.90 86.20 7 4 249
1863 SI MM 09:00:00 NR -7.96 86.02 1591 1591 __________P___ -1 -7.96 86.02 7 4 253
1863 SI MM 12:00:00 NR -8.01 85.85 1610 1610 __________P___ -1 -8.01 85.85 7 4 254
1863 SI MM 15:00:00 NR -8.05 85.67 1625 1625 __________P___ -1 -8.05 85.67 7 4 255
1863 SI MM 18:00:00 NR -8.10 85.50 1645 1645 __________O___ -1 -8.10 85.50 7 3 256
1863 SI MM 21:00:00 NR -8.12 85.43 1655 1653 __________P___ -1 -8.12 85.43 7 2 257
1863 SI MM 1863-05-03 00:00:00 NR -8.14 85.34 1653 1653 __________P___ -1 -8.14 85.34 7 3 255
1863 SI MM 03:00:00 NR -8.19 85.15 1660 1653 __________P___ -1 -8.19 85.15 7 6 253
1863 SI MM 06:00:00 NR -8.30 84.80 1658 1651 __________O___ -1 -8.30 84.80 7 10 254
1863 SI MM 09:00:00 NR -8.47 84.18 1662 1654 __________P___ -1 -8.47 84.18 7 15 254
1863 SI MM 12:00:00 NR -8.70 83.38 1665 1661 __________P___ -1 -8.70 83.38 7 17 253
1863 SI MM 15:00:00 NR -8.98 82.49 1682 1680 __________P___ -1 -8.98 82.49 7 19 251
1863 SI MM 18:00:00 NR -9.30 81.60 1706 1706 __________O___ -1 -9.30 81.60 7 19 247
1863 SI MM 21:00:00 NR -9.70 80.72 1748 1748 __________P___ -1 -9.70 80.72 7 19 244
1863 SI MM 1863-05-04 00:00:00 NR -10.14 79.86 1794 1794 __________P___ -1 -10.14 79.86 7 18 242
1863 SI MM 03:00:00 NR -10.56 79.09 1856 1856 __________P___ -1 -10.56 79.09 7 15 240
1863 SI MM 06:00:00 NR -10.90 78.50 1896 1896 __________O___ -1 -10.90 78.50 7 11 239
1863 SI MM 09:00:00 NR -11.10 78.16 1923 1923 __________P___ -1 -11.10 78.16 7 6 237
1863 SI MM 12:00:00 NR -11.23 77.99 1937 1937 __________P___ -1 -11.23 77.99 7 3 227
1863 SI MM 15:00:00 NR -11.32 77.93 1950 1950 __________P___ -1 -11.32 77.93 7 2 207
1863 SI MM 18:00:00 NR -11.40 77.90 1961 1961 __________O___ -1 -11.40 77.90 7 3 211
1863 SI MM 21:00:00 NR -11.53 77.79 1974 1974 __________P___ -1 -11.53 77.79 7 3 216
1863 SI MM 1863-05-05 00:00:00 NR -11.66 77.70 1997 1997 __________P___ -1 -11.66 77.70 7 3 210
1863 SI MM 03:00:00 NR -11.79 77.64 2010 2010 __________P___ -1 -11.79 77.64 7 3 204
1863 SI MM 06:00:00 NR -11.90 77.60 2021 2021 __________O___ -1 -11.90 77.60 7 2 200
1863 SI MM 09:00:00 NR -11.99 77.57 2032 2032 __________P___ -1 -11.99 77.57 7 2 191
1863 SI MM 12:00:00 NR -12.06 77.56 2043 2043 __________P___ -1 -12.06 77.56 7 1 0
1863 SI MM 15:00:00 NR -12.13 77.57 2043 2043 __________P___ -1 -12.13 77.57 7 1 161
1863 SI MM 18:00:00 NR -12.20 77.60 2054 2054 __________O___ -1 -12.20 77.60 7 2 158
1863 SI MM 21:00:00 NR -12.28 77.64 2066 2064 __________P___ -1 -12.28 77.64 7 2 153
1863 SI MM 1863-05-06 00:00:00 NR -12.35 77.68 2075 2075 __________P___ -1 -12.35 77.68 7 2 146
1863 SI MM 03:00:00 NR -12.43 77.74 2075 2073 __________P___ -1 -12.43 77.74 7 2 144
1863 SI MM 06:00:00 NR -12.50 77.80 2084 2084 __________O___ -1 -12.50 77.80 7 2 146
1863 SI MM 09:00:00 NR -12.58 77.85 2094 2094 __________P___ -1 -12.58 77.85 7 2 148
1863 SI MM 12:00:00 NR -12.66 77.90 2105 2105 __________P___ -1 -12.66 77.90 7 2 148
1863 SI MM 15:00:00 NR -12.73 77.95 2103 2103 __________P___ -1 -12.73 77.95 7 2 146
1863 SI MM 18:00:00 NR -12.80 78.00 2114 2114 __________O___ -1 -12.80 78.00 7 1 144
1863 SI MM 21:00:00 NR -12.82 78.01 2114 2114 __________P___ -1 -12.82 78.01 7 0 125
1863 SI MM 1863-05-07 00:00:00 NR -12.83 78.03 2114 2113 __________P___ -1 -12.83 78.03 7 1 133
1863 SI MM 03:00:00 NR -12.88 78.09 2124 2123 __________P___ -1 -12.88 78.09 7 2 136
1863 SI MM 06:00:00 NR -13.00 78.20 2134 2134 __________O___ -1 -13.00 78.20 7 5 140
1863 SI MM 09:00:00 NR -13.25 78.41 2153 2153 __________P___ -1 -13.25 78.41 7 7 141
1863 SI MM 12:00:00 NR -13.56 78.67 2194 2194 __________P___ -1 -13.56 78.67 7 9 139
1863 SI MM 15:00:00 NR -13.90 78.98 2225 2225 __________P___ -1 -13.90 78.98 7 9 136
1863 SI MM 18:00:00 NR -14.20 79.30 2256 2255 __________O___ -1 -14.20 79.30 7 8 132
1863 SI MM 21:00:00 NR -14.44 79.61 2276 2276 __________P___ -1 -14.44 79.61 7 7 126
1863 SI MM 1863-05-08 00:00:00 NR -14.63 79.91 2297 2297 __________P___ -1 -14.63 79.91 7 7 120
1863 SI MM 03:00:00 NR -14.77 80.21 2319 2319 __________P___ -1 -14.77 80.21 7 6 116
1863 SI MM 06:00:00 NR -14.90 80.50 2330 __________O___ -1 -14.90 80.50 7 6 114